Time;durP1;ratioP1;P1;durP2;ratioP2;P2;SDS_P1;SDS_P2;PMS_P1;PMS_P2;Temp;Humidity;BMP_temperature;BMP_pressure;BME280_temperature;BME280_humidity;BME280_pressure;Samples;Min_cycle;Max_cycle;Signal;HPM_P1;HPM_P2
2023/03/07 00:02:06;;;;;;;19.70;11.50;;;5.10;1.00;;;;;;5006180;28;20209;-71
2023/03/07 00:04:32;;;;;;;18.90;11.30;;;5.10;1.00;;;;;;5010290;28;20437;-71
2023/03/07 00:06:58;;;;;;;17.47;11.47;;;5.10;1.00;;;;;;5010039;28;20704;-71
2023/03/07 00:09:23;;;;;;;22.50;12.60;;;5.10;1.00;;;;;;5009120;28;20182;-71
2023/03/07 00:11:49;;;;;;;20.60;12.00;;;5.10;1.00;;;;;;5010088;28;20193;-71
2023/03/07 00:14:15;;;;;;;18.77;11.50;;;5.10;1.00;;;;;;5009970;28;20182;-71
2023/03/07 00:16:40;;;;;;;21.73;12.50;;;5.10;1.00;;;;;;5010079;28;21036;-71
2023/03/07 00:19:06;;;;;;;24.50;12.23;;;5.10;1.00;;;;;;5009508;28;20194;-71
2023/03/07 00:21:33;;;;;;;21.07;12.10;;;5.10;1.00;;;;;;5010022;28;20198;-72
2023/03/07 00:23:58;;;;;;;18.13;11.20;;;5.10;1.00;;;;;;5009810;28;20954;-71
2023/03/07 00:26:25;;;;;;;20.70;11.70;;;4.70;1.00;;;;;;5006664;28;20762;-71
2023/03/07 00:28:52;;;;;;;22.00;11.93;;;5.60;1.00;;;;;;5008017;28;20674;-71
2023/03/07 00:31:19;;;;;;;19.97;11.73;;;5.20;1.00;;;;;;5008373;28;20469;-71
2023/03/07 00:33:44;;;;;;;20.67;11.83;;;5.10;1.00;;;;;;5006604;28;20441;-71
2023/03/07 00:36:19;;;;;;;19.77;11.43;;;5.40;1.00;;;;;;5008487;28;20456;-71
2023/03/07 00:38:45;;;;;;;18.40;10.87;;;5.10;1.00;;;;;;5009112;28;20196;-72
2023/03/07 00:41:13;;;;;;;20.67;11.20;;;5.40;1.00;;;;;;5008874;28;20469;-71
2023/03/07 00:43:39;;;;;;;19.37;11.53;;;5.10;1.00;;;;;;5008206;28;20508;-71
2023/03/07 00:46:05;;;;;;;21.97;12.60;;;5.50;1.00;;;;;;5007263;28;20461;-71
2023/03/07 00:48:36;;;;;;;21.47;10.90;;;5.10;1.00;;;;;;5007990;28;20183;-71
2023/03/07 00:51:02;;;;;;;19.90;11.80;;;5.30;1.00;;;;;;5008341;28;20211;-71
2023/03/07 00:53:28;;;;;;;20.37;10.43;;;5.10;1.00;;;;;;5006781;28;20532;-71
2023/03/07 00:55:56;;;;;;;20.80;11.27;;;5.20;1.00;;;;;;5003368;28;20511;-71
2023/03/07 00:58:23;;;;;;;20.20;11.50;;;5.20;1.00;;;;;;5008301;28;20590;-71
2023/03/07 01:00:49;;;;;;;18.13;10.90;;;5.60;1.00;;;;;;5007311;28;20476;-71
2023/03/07 01:03:14;;;;;;;19.13;12.13;;;5.60;1.00;;;;;;5008026;28;20425;-71
2023/03/07 01:05:40;;;;;;;20.63;11.37;;;5.20;1.00;;;;;;5007142;28;20210;-71
2023/03/07 01:08:06;;;;;;;24.40;13.03;;;5.20;1.00;;;;;;5008226;28;20653;-71
2023/03/07 01:10:32;;;;;;;22.20;13.03;;;5.10;1.00;;;;;;5009203;28;20209;-71
2023/03/07 01:12:58;;;;;;;23.90;13.13;;;5.50;1.00;;;;;;5005891;28;20186;-69
2023/03/07 01:15:24;;;;;;;22.47;13.07;;;5.00;1.00;;;;;;5008362;28;20221;-71
2023/03/07 01:17:50;;;;;;;18.47;11.70;;;5.30;1.00;;;;;;5008597;28;20480;-71
2023/03/07 01:20:15;;;;;;;19.57;11.97;;;4.90;1.00;;;;;;5007537;28;20241;-71
2023/03/07 01:22:41;;;;;;;21.63;12.23;;;4.90;1.00;;;;;;5008450;28;20202;-71
2023/03/07 01:25:07;;;;;;;20.47;12.03;;;4.90;1.00;;;;;;5006430;28;20186;-71
2023/03/07 01:27:32;;;;;;;22.50;11.63;;;4.90;1.00;;;;;;5006808;28;20183;-71
2023/03/07 01:29:58;;;;;;;24.77;12.60;;;4.80;1.00;;;;;;5006935;28;20214;-71
2023/03/07 01:32:23;;;;;;;18.67;11.80;;;4.90;1.00;;;;;;5007664;28;20187;-71
2023/03/07 01:34:49;;;;;;;23.30;12.87;;;4.80;1.00;;;;;;5004738;28;20214;-71
2023/03/07 01:37:14;;;;;;;18.97;12.30;;;4.80;1.00;;;;;;5006756;28;20597;-71
2023/03/07 01:39:40;;;;;;;18.63;11.40;;;5.00;1.00;;;;;;5008043;28;20222;-71
2023/03/07 01:42:06;;;;;;;21.60;12.27;;;4.90;1.00;;;;;;5007993;28;20555;-71
2023/03/07 01:44:57;;;;;;;23.37;13.00;;;4.90;1.00;;;;;;5006661;28;20669;-71
2023/03/07 01:47:23;;;;;;;24.50;12.73;;;4.90;1.00;;;;;;5007464;28;20512;-71
2023/03/07 01:49:49;;;;;;;20.50;11.73;;;5.50;1.00;;;;;;5012007;28;20532;-71
2023/03/07 01:52:45;;;;;;;22.73;13.30;;;5.00;1.00;;;;;;5011334;28;20265;-71
2023/03/07 01:55:16;;;;;;;20.97;12.17;;;5.40;1.00;;;;;;5006087;28;20190;-71
2023/03/07 01:57:43;;;;;;;18.83;11.80;;;5.00;1.00;;;;;;5009522;28;20429;-71
2023/03/07 02:00:16;;;;;;;20.97;11.40;;;4.90;1.00;;;;;;5011933;28;20495;-71
2023/03/07 02:02:44;;;;;;;21.47;12.77;;;4.90;1.00;;;;;;5007970;28;20556;-71
2023/03/07 02:05:19;;;;;;;24.10;13.50;;;4.90;1.00;;;;;;5011892;28;20436;-72
2023/03/07 02:07:48;;;;;;;20.60;11.47;;;5.00;1.00;;;;;;5012370;28;20515;-71
2023/03/07 02:10:14;;;;;;;23.93;13.90;;;4.90;1.00;;;;;;5011598;28;20454;-71
2023/03/07 02:12:41;;;;;;;20.43;11.90;;;5.00;1.00;;;;;;5009188;28;20474;-71
2023/03/07 02:15:11;;;;;;;22.10;11.77;;;4.90;1.00;;;;;;5007334;28;20971;-70
2023/03/07 02:17:40;;;;;;;22.10;12.90;;;5.20;1.00;;;;;;5011891;28;20445;-71
2023/03/07 02:20:38;;;;;;;21.07;12.30;;;4.90;1.00;;;;;;5011660;28;20484;-70
2023/03/07 02:23:12;;;;;;;20.60;12.13;;;4.80;1.00;;;;;;5012020;28;20433;-70
2023/03/07 02:25:46;;;;;;;20.33;11.83;;;4.90;1.00;;;;;;5010767;28;20484;-71
2023/03/07 02:28:15;;;;;;;23.87;13.33;;;4.80;1.00;;;;;;5010394;28;20426;-71
2023/03/07 02:31:04;;;;;;;20.47;10.50;;;5.20;1.00;;;;;;5010567;28;20899;-71
2023/03/07 02:33:30;;;;;;;19.03;11.47;;;4.80;1.00;;;;;;5008906;28;20946;-71
2023/03/07 02:36:00;;;;;;;22.07;12.60;;;4.70;1.00;;;;;;5011241;28;20436;-71
2023/03/07 02:38:26;;;;;;;18.90;11.40;;;5.30;1.00;;;;;;5009636;28;20183;-71
2023/03/07 02:40:54;;;;;;;21.40;11.83;;;5.10;1.00;;;;;;5011361;28;21014;-70
2023/03/07 02:43:20;;;;;;;22.17;12.43;;;4.80;1.00;;;;;;5010775;28;20441;-71
2023/03/07 02:45:46;;;;;;;22.70;12.70;;;4.80;1.00;;;;;;5011349;28;20464;-71
2023/03/07 02:48:12;;;;;;;21.20;12.63;;;5.10;1.00;;;;;;5008599;28;20442;-71
2023/03/07 02:50:38;;;;;;;20.63;11.47;;;4.70;1.00;;;;;;5009487;28;20206;-71
2023/03/07 02:53:04;;;;;;;21.47;11.40;;;4.50;1.00;;;;;;5008300;28;20449;-71
2023/03/07 02:55:30;;;;;;;18.77;11.80;;;4.50;1.00;;;;;;5010143;28;20602;-71
2023/03/07 02:57:55;;;;;;;21.73;12.70;;;4.60;1.00;;;;;;5007136;28;20226;-71
2023/03/07 03:00:22;;;;;;;22.30;12.47;;;4.60;1.00;;;;;;5009365;28;20588;-71
2023/03/07 03:02:47;;;;;;;20.47;11.53;;;4.60;1.00;;;;;;5009573;28;20601;-71
2023/03/07 03:05:13;;;;;;;23.43;11.97;;;4.80;1.00;;;;;;5009020;28;20182;-71
2023/03/07 03:07:38;;;;;;;23.47;13.57;;;5.00;1.00;;;;;;5009846;28;20545;-71
2023/03/07 03:10:04;;;;;;;24.60;12.80;;;4.60;1.00;;;;;;5010659;28;20221;-71
2023/03/07 03:12:30;;;;;;;25.33;11.50;;;4.50;1.00;;;;;;5010611;28;20186;-71
2023/03/07 03:14:55;;;;;;;21.90;12.97;;;4.40;1.00;;;;;;5011049;28;20439;-71
2023/03/07 03:17:21;;;;;;;20.00;11.90;;;4.50;1.00;;;;;;5010521;28;20209;-71
2023/03/07 03:19:46;;;;;;;22.10;11.87;;;4.50;1.00;;;;;;5009697;28;20213;-71
2023/03/07 03:22:12;;;;;;;20.83;12.03;;;4.40;1.00;;;;;;5009869;28;20241;-70
2023/03/07 03:24:39;;;;;;;18.83;11.27;;;4.40;1.00;;;;;;5010975;28;20541;-71
2023/03/07 03:27:05;;;;;;;21.63;11.47;;;4.30;1.00;;;;;;5010087;28;20453;-71
2023/03/07 03:29:31;;;;;;;24.60;13.17;;;4.40;1.00;;;;;;5008294;28;20441;-71
2023/03/07 03:31:56;;;;;;;24.50;13.70;;;4.60;1.00;;;;;;5010493;28;20494;-71
2023/03/07 03:34:22;;;;;;;21.33;12.60;;;4.40;1.00;;;;;;5006632;28;20191;-71
2023/03/07 03:36:47;;;;;;;23.37;12.53;;;4.50;1.00;;;;;;5009775;28;20186;-71
2023/03/07 03:39:13;;;;;;;26.33;13.97;;;4.40;1.00;;;;;;5009848;28;20335;-70
2023/03/07 03:41:39;;;;;;;28.37;12.17;;;4.50;1.00;;;;;;5008946;28;20213;-71
2023/03/07 03:44:04;;;;;;;27.50;13.53;;;5.00;1.00;;;;;;5009326;28;20198;-71
2023/03/07 03:46:30;;;;;;;22.30;12.80;;;4.40;1.00;;;;;;5008302;28;20190;-71
2023/03/07 03:48:55;;;;;;;22.63;13.27;;;4.60;1.00;;;;;;5005977;28;20175;-71
2023/03/07 03:51:22;;;;;;;22.40;12.67;;;4.40;1.00;;;;;;5008816;28;20297;-71
2023/03/07 03:53:48;;;;;;;17.60;9.87;;;4.90;1.00;;;;;;5007806;28;20183;-71
2023/03/07 03:56:19;;;;;;;24.40;13.10;;;4.40;1.00;;;;;;5004953;28;20434;-70
2023/03/07 03:58:50;;;;;;;20.93;12.67;;;4.70;1.00;;;;;;5007359;28;20524;-71
2023/03/07 04:01:17;;;;;;;17.70;11.03;;;4.90;1.00;;;;;;5007196;28;20484;-71
2023/03/07 04:03:45;;;;;;;21.97;13.10;;;4.60;1.00;;;;;;5010143;28;20458;-71
2023/03/07 04:06:17;;;;;;;21.37;12.37;;;4.50;1.00;;;;;;5010500;28;20991;-71
2023/03/07 04:08:43;;;;;;;24.50;12.90;;;4.50;1.00;;;;;;5004675;28;20952;-71
2023/03/07 04:11:08;;;;;;;24.17;12.67;;;4.60;1.00;;;;;;5009054;28;20456;-71
2023/03/07 04:13:34;;;;;;;20.27;11.50;;;4.50;1.00;;;;;;5009155;28;20266;-71
2023/03/07 04:16:00;;;;;;;21.13;12.00;;;4.50;1.00;;;;;;5009737;28;20269;-71
2023/03/07 04:18:26;;;;;;;18.67;10.83;;;4.50;1.00;;;;;;5009385;28;20521;-71
2023/03/07 04:20:52;;;;;;;20.10;11.13;;;4.90;1.00;;;;;;5010030;28;20544;-71
2023/03/07 04:23:19;;;;;;;21.23;12.07;;;4.90;1.00;;;;;;5009205;28;20425;-71
2023/03/07 04:25:49;;;;;;;24.30;11.80;;;4.80;1.00;;;;;;5008979;28;20175;-71
2023/03/07 04:28:18;;;;;;;19.30;11.43;;;4.40;1.00;;;;;;5006757;28;20441;-70
2023/03/07 04:30:44;;;;;;;21.20;11.90;;;4.60;1.00;;;;;;5008237;28;20986;-71
2023/03/07 04:33:11;;;;;;;19.27;10.70;;;4.40;1.00;;;;;;5008915;28;20433;-71
2023/03/07 04:35:37;;;;;;;22.43;11.70;;;4.30;1.00;;;;;;5007469;28;20495;-71
2023/03/07 04:38:03;;;;;;;21.00;11.73;;;4.40;1.00;;;;;;5008658;28;20456;-71
2023/03/07 04:40:28;;;;;;;19.77;11.27;;;4.40;1.00;;;;;;5008630;28;20997;-71
2023/03/07 04:42:54;;;;;;;19.23;10.60;;;4.40;1.00;;;;;;5008204;28;20721;-71
2023/03/07 04:45:19;;;;;;;18.80;10.63;;;4.70;1.00;;;;;;5008993;28;20665;-70
2023/03/07 04:47:45;;;;;;;23.30;12.00;;;4.50;1.00;;;;;;5008259;28;20193;-71
2023/03/07 04:50:10;;;;;;;21.43;11.10;;;4.50;1.00;;;;;;5007922;28;20213;-71
2023/03/07 04:52:36;;;;;;;18.13;10.67;;;4.50;1.00;;;;;;5008609;28;20236;-70
2023/03/07 04:55:02;;;;;;;18.97;10.73;;;4.50;1.00;;;;;;5002623;28;20186;-71
2023/03/07 04:57:27;;;;;;;16.67;9.60;;;4.50;1.00;;;;;;5007560;28;20820;-71
2023/03/07 04:59:53;;;;;;;20.73;12.07;;;4.50;1.00;;;;;;5007002;28;20213;-71
2023/03/07 05:02:18;;;;;;;21.60;11.40;;;4.60;1.00;;;;;;5007309;28;20206;-71
2023/03/07 05:04:44;;;;;;;17.33;10.50;;;4.60;1.00;;;;;;5007068;28;20190;-70
2023/03/07 05:07:09;;;;;;;20.80;9.73;;;4.60;1.00;;;;;;5008464;28;20285;-71
2023/03/07 05:09:35;;;;;;;18.40;10.50;;;4.70;1.00;;;;;;5006548;28;20209;-71
2023/03/07 05:12:01;;;;;;;20.03;11.03;;;4.60;1.00;;;;;;5009095;28;20205;-70
2023/03/07 05:14:26;;;;;;;19.13;11.17;;;4.70;1.00;;;;;;5005651;28;20183;-71
2023/03/07 05:16:52;;;;;;;14.23;8.43;;;4.70;1.00;;;;;;5008509;28;20620;-71
2023/03/07 05:19:17;;;;;;;18.17;10.47;;;4.70;1.00;;;;;;5008402;28;20565;-70
2023/03/07 05:21:43;;;;;;;19.20;10.80;;;4.60;1.00;;;;;;5009030;28;20585;-70
2023/03/07 05:24:09;;;;;;;17.70;11.13;;;5.00;1.00;;;;;;5007515;28;20657;-70
2023/03/07 05:26:35;;;;;;;18.97;11.73;;;4.70;1.00;;;;;;5008875;28;20189;-70
2023/03/07 05:29:00;;;;;;;17.80;10.73;;;4.70;1.00;;;;;;5007620;28;20433;-70
2023/03/07 05:31:26;;;;;;;17.20;10.50;;;4.80;1.00;;;;;;5008518;28;20210;-71
2023/03/07 05:33:52;;;;;;;16.07;9.97;;;5.00;1.00;;;;;;5006807;28;20929;-70
2023/03/07 05:36:17;;;;;;;18.00;9.83;;;4.80;1.00;;;;;;5007414;28;20240;-71
2023/03/07 05:38:43;;;;;;;18.67;11.27;;;4.80;1.00;;;;;;5007522;28;20186;-70
2023/03/07 05:41:09;;;;;;;20.03;8.80;;;5.10;1.00;;;;;;5006780;28;20214;-70
2023/03/07 05:43:34;;;;;;;13.00;8.20;;;4.80;1.00;;;;;;5007066;28;20534;-70
2023/03/07 05:46:00;;;;;;;16.70;9.73;;;4.80;1.00;;;;;;5006517;28;20182;-70
2023/03/07 05:48:25;;;;;;;17.93;9.90;;;4.90;1.00;;;;;;5008552;28;20759;-71
2023/03/07 05:50:51;;;;;;;17.80;10.37;;;4.90;1.00;;;;;;5008505;28;20206;-70
2023/03/07 05:53:16;;;;;;;17.17;9.97;;;4.90;1.00;;;;;;5006366;28;20244;-70
2023/03/07 05:55:43;;;;;;;17.53;10.37;;;5.00;1.00;;;;;;5006422;28;20182;-70
2023/03/07 05:58:08;;;;;;;17.03;9.40;;;5.00;1.00;;;;;;5003199;28;20257;-71
2023/03/07 06:00:34;;;;;;;16.63;9.67;;;5.00;1.00;;;;;;5004660;28;20469;-71
2023/03/07 06:03:01;;;;;;;18.47;10.00;;;5.00;1.00;;;;;;5007408;28;20210;-71
2023/03/07 06:05:27;;;;;;;16.47;9.90;;;5.00;1.00;;;;;;5007900;28;20182;-71
2023/03/07 06:07:52;;;;;;;17.00;9.93;;;5.00;1.00;;;;;;5006998;28;20430;-71
2023/03/07 06:10:18;;;;;;;19.07;9.97;;;5.00;1.00;;;;;;5008512;28;20564;-70
2023/03/07 06:12:47;;;;;;;14.00;8.47;;;5.20;1.00;;;;;;4999419;28;20187;-71
2023/03/07 06:15:13;;;;;;;16.33;9.80;;;5.40;1.00;;;;;;5008195;28;20187;-71
2023/03/07 06:17:38;;;;;;;15.47;9.03;;;5.10;1.00;;;;;;5008073;28;20429;-71
2023/03/07 06:20:04;;;;;;;16.87;9.60;;;5.40;1.00;;;;;;5007677;28;20692;-72
2023/03/07 06:22:30;;;;;;;15.53;9.97;;;5.20;1.00;;;;;;5008076;28;20257;-71
2023/03/07 06:24:56;;;;;;;18.20;9.53;;;5.20;1.00;;;;;;5008064;28;20465;-70
2023/03/07 06:27:21;;;;;;;20.43;10.10;;;5.30;1.00;;;;;;5007677;28;20462;-70
2023/03/07 06:29:47;;;;;;;16.67;9.07;;;5.40;1.00;;;;;;5008560;28;20677;-71
2023/03/07 06:32:13;;;;;;;16.23;10.07;;;5.40;1.00;;;;;;5008577;28;20183;-71
2023/03/07 06:34:38;;;;;;;15.70;9.97;;;5.40;1.00;;;;;;5008339;28;20293;-71
2023/03/07 06:37:04;;;;;;;16.20;9.03;;;5.50;1.00;;;;;;5010264;28;20664;-70
2023/03/07 06:39:29;;;;;;;15.50;9.60;;;5.50;1.00;;;;;;5008954;28;20205;-70
2023/03/07 06:41:55;;;;;;;15.30;9.70;;;5.50;1.00;;;;;;5009561;28;20585;-70
2023/03/07 06:44:20;;;;;;;15.83;9.13;;;5.50;1.00;;;;;;5010470;28;20193;-71
2023/03/07 06:46:46;;;;;;;15.40;9.47;;;5.60;1.00;;;;;;5010510;28;20178;-71
2023/03/07 06:49:12;;;;;;;17.40;9.50;;;5.60;1.00;;;;;;5009983;28;20186;-71
2023/03/07 06:51:37;;;;;;;15.00;9.37;;;5.60;1.00;;;;;;5006877;28;20217;-71
2023/03/07 06:54:03;;;;;;;14.23;9.00;;;5.60;1.00;;;;;;5009995;28;20248;-70
2023/03/07 06:56:29;;;;;;;18.17;9.30;;;5.60;1.00;;;;;;5009852;28;20186;-71
2023/03/07 06:58:54;;;;;;;15.30;9.17;;;5.70;1.00;;;;;;5009927;28;20214;-71
2023/03/07 07:01:21;;;;;;;15.30;9.17;;;5.80;1.00;;;;;;5010743;28;22899;-71
2023/03/07 07:03:47;;;;;;;14.73;8.97;;;5.80;1.00;;;;;;5005896;28;20453;-71
2023/03/07 07:06:13;;;;;;;14.57;8.83;;;5.70;1.00;;;;;;5009693;28;20492;-71
2023/03/07 07:08:38;;;;;;;16.13;9.00;;;5.60;1.00;;;;;;5009479;28;20240;-71
2023/03/07 07:11:04;;;;;;;13.60;8.90;;;5.70;1.00;;;;;;5009371;28;20199;-71
2023/03/07 07:13:30;;;;;;;15.13;8.33;;;5.70;1.00;;;;;;5007335;28;20182;-71
2023/03/07 07:15:55;;;;;;;15.13;8.77;;;5.80;1.00;;;;;;5007965;28;20190;-71
2023/03/07 07:18:21;;;;;;;17.10;10.30;;;5.80;1.00;;;;;;5007717;28;20194;-69
2023/03/07 07:20:54;;;;;;;15.30;9.13;;;5.80;1.00;;;;;;5009897;28;20201;-71
2023/03/07 07:23:19;;;;;;;14.20;8.45;;;5.80;1.00;;;;;;5009497;28;20790;-72
2023/03/07 07:25:45;;;;;;;15.70;7.30;;;5.90;1.00;;;;;;4996956;28;20190;-73
2023/03/07 07:28:10;;;;;;;18.97;8.73;;;6.60;1.00;;;;;;5002018;28;20190;-74
2023/03/07 07:30:36;;;;;;;14.57;8.63;;;7.00;1.00;;;;;;4999332;28;20199;-74
2023/03/07 07:33:01;;;;;;;15.83;9.50;;;7.10;1.00;;;;;;5006177;28;20187;-74
2023/03/07 07:35:27;;;;;;;13.00;8.53;;;7.00;1.00;;;;;;5003237;28;20760;-72
2023/03/07 07:37:53;;;;;;;12.90;8.30;;;6.80;1.00;;;;;;5005920;28;20268;-72
2023/03/07 07:40:18;;;;;;;19.73;8.90;;;6.60;1.00;;;;;;5007779;28;20249;-71
2023/03/07 07:42:53;;;;;;;13.97;8.37;;;6.50;1.00;;;;;;5009609;28;20289;-71
2023/03/07 07:45:20;;;;;;;11.30;6.63;;;6.30;1.00;;;;;;5008627;28;20192;-70
2023/03/07 07:47:50;;;;;;;13.20;8.83;;;6.10;1.00;;;;;;5009965;28;20429;-71
2023/03/07 07:50:20;;;;;;;14.27;8.63;;;6.20;1.00;;;;;;5008004;28;20496;-70
2023/03/07 07:52:46;;;;;;;17.17;8.93;;;6.20;1.00;;;;;;5006215;28;20453;-70
2023/03/07 07:55:14;;;;;;;13.90;9.27;;;6.20;1.00;;;;;;5008502;28;20453;-70
2023/03/07 07:57:41;;;;;;;15.87;8.67;;;6.10;1.00;;;;;;5006286;28;20511;-72
2023/03/07 08:00:09;;;;;;;16.93;10.07;;;6.20;1.00;;;;;;5007764;28;20497;-71
2023/03/07 08:02:35;;;;;;;15.77;9.60;;;6.20;1.00;;;;;;5009792;28;20460;-71
2023/03/07 08:05:00;;;;;;;17.60;10.27;;;6.30;1.00;;;;;;5009089;28;20596;-72
2023/03/07 08:07:26;;;;;;;10.13;6.13;;;6.30;1.00;;;;;;5008307;28;21074;-70
2023/03/07 08:09:52;;;;;;;19.93;9.67;;;6.20;1.00;;;;;;5010317;28;20295;-71
2023/03/07 08:12:17;;;;;;;14.87;7.80;;;6.20;1.00;;;;;;5010769;28;20541;-71
2023/03/07 08:14:43;;;;;;;16.10;9.50;;;6.20;1.00;;;;;;5010098;28;20195;-71
2023/03/07 08:17:09;;;;;;;12.70;7.97;;;6.40;1.00;;;;;;5009730;28;20178;-71
2023/03/07 08:19:34;;;;;;;17.00;8.53;;;6.30;1.00;;;;;;5009928;28;20664;-70
2023/03/07 08:22:00;;;;;;;19.93;10.10;;;6.30;1.00;;;;;;5008055;28;20604;-71
2023/03/07 08:24:26;;;;;;;17.03;9.93;;;6.30;1.00;;;;;;5009779;28;20262;-73
2023/03/07 08:26:52;;;;;;;16.07;10.67;;;6.40;1.00;;;;;;5007232;28;20536;-71
2023/03/07 08:29:17;;;;;;;15.03;8.87;;;6.60;1.00;;;;;;5005971;28;20645;-70
2023/03/07 08:31:44;;;;;;;13.63;7.80;;;6.50;1.00;;;;;;5006477;28;20248;-71
2023/03/07 08:34:10;;;;;;;14.50;8.30;;;6.70;1.00;;;;;;5003478;28;20588;-71
2023/03/07 08:36:36;;;;;;;14.97;8.67;;;6.90;1.00;;;;;;5007806;28;20491;-71
2023/03/07 08:39:02;;;;;;;12.80;8.47;;;6.90;1.00;;;;;;5008905;28;20440;-71
2023/03/07 08:41:28;;;;;;;12.33;7.67;;;6.90;1.00;;;;;;5007975;28;20829;-71
2023/03/07 08:43:54;;;;;;;14.70;7.80;;;6.90;1.00;;;;;;5008932;28;20183;-71
2023/03/07 08:46:19;;;;;;;15.23;8.30;;;7.00;1.00;;;;;;5008608;28;20197;-71
2023/03/07 08:48:45;;;;;;;12.27;7.80;;;7.20;1.00;;;;;;5009724;28;20597;-72
2023/03/07 08:51:16;;;;;;;17.90;8.70;;;7.30;1.00;;;;;;5000567;28;20206;-73
2023/03/07 08:53:43;;;;;;;11.67;6.40;;;7.40;1.00;;;;;;5004485;28;20197;-71
2023/03/07 08:56:10;;;;;;;11.77;6.60;;;7.30;1.00;;;;;;5007481;28;20461;-70
2023/03/07 08:58:36;;;;;;;13.70;8.27;;;7.40;1.00;;;;;;5007153;28;20465;-71
2023/03/07 09:01:03;;;;;;;13.33;7.63;;;7.50;1.00;;;;;;5009409;28;20484;-71
2023/03/07 09:03:28;;;;;;;8.53;5.07;;;7.60;1.00;;;;;;5008118;28;20193;-71
2023/03/07 09:05:54;;;;;;;13.83;8.57;;;7.30;1.00;;;;;;5008407;28;20445;-71
2023/03/07 09:08:20;;;;;;;11.63;6.60;;;7.40;1.00;;;;;;5009375;28;20565;-71
2023/03/07 09:10:45;;;;;;;14.40;6.47;;;7.50;1.00;;;;;;5002658;28;20294;-71
2023/03/07 09:13:11;;;;;;;11.37;7.93;;;7.50;1.00;;;;;;5006074;28;20601;-71
2023/03/07 09:15:40;;;;;;;12.40;7.77;;;7.70;1.00;;;;;;5007317;28;20221;-71
2023/03/07 09:18:07;;;;;;;12.53;7.43;;;8.10;1.00;;;;;;5008917;28;20189;-70
2023/03/07 09:20:33;;;;;;;13.10;8.80;;;8.30;1.00;;;;;;5009097;28;20457;-72
2023/03/07 09:22:58;;;;;;;10.53;7.67;;;8.40;1.00;;;;;;5008902;28;20522;-71
2023/03/07 09:25:24;;;;;;;12.47;8.57;;;8.30;1.00;;;;;;5007026;28;20182;-71
2023/03/07 09:27:52;;;;;;;14.40;7.70;;;8.40;1.00;;;;;;5007681;28;20661;-71
2023/03/07 09:30:18;;;;;;;9.90;6.73;;;8.30;1.00;;;;;;5007646;28;20218;-71
2023/03/07 09:32:43;;;;;;;12.23;7.80;;;8.40;1.00;;;;;;5008056;28;20441;-71
2023/03/07 09:35:09;;;;;;;15.33;7.90;;;8.40;1.00;;;;;;5004243;28;20776;-71
2023/03/07 09:37:35;;;;;;;10.63;6.70;;;8.50;1.00;;;;;;5004390;28;20675;-72
2023/03/07 09:40:04;;;;;;;12.00;7.80;;;8.30;1.00;;;;;;5007646;28;20580;-71
2023/03/07 09:42:35;;;;;;;10.80;6.37;;;8.30;1.00;;;;;;5003153;28;20211;-71
2023/03/07 09:45:43;;;;;;;10.20;6.60;;;8.10;1.00;;;;;;5000420;28;20445;-72
2023/03/07 09:48:33;;;;;;;11.67;7.50;;;8.20;1.00;;;;;;5002389;28;20441;-72
2023/03/07 09:51:18;;;;;;;18.77;7.97;;;8.60;1.00;;;;;;5008171;28;20446;-71
2023/03/07 09:54:19;;;;;;;15.10;7.90;;;8.70;1.00;;;;;;5005265;28;20848;-71
2023/03/07 09:56:53;;;;;;;12.57;7.17;;;8.70;1.00;;;;;;4971295;28;20843;-71
2023/03/07 09:59:35;;;;;;;10.10;7.10;;;8.50;1.00;;;;;;5006811;28;20437;-72
2023/03/07 10:02:36;;;;;;;11.13;7.10;;;8.70;1.00;;;;;;5003111;28;20888;-71
2023/03/07 10:05:07;;;;;;;11.70;7.70;;;8.60;1.00;;;;;;5007654;28;21074;-71
2023/03/07 10:07:34;;;;;;;9.53;6.50;;;8.50;1.00;;;;;;5007356;28;20541;-71
2023/03/07 10:10:03;;;;;;;9.47;7.23;;;8.50;1.00;;;;;;5011773;28;20982;-71
2023/03/07 10:13:04;;;;;;;11.50;7.17;;;8.70;1.00;;;;;;5012481;28;20444;-72
2023/03/07 10:15:33;;;;;;;11.87;6.97;;;8.70;1.00;;;;;;5010942;28;20441;-71
2023/03/07 10:18:05;;;;;;;13.63;7.10;;;8.50;1.00;;;;;;5011318;28;20430;-71
2023/03/07 10:20:51;;;;;;;12.80;6.40;;;8.50;1.00;;;;;;5009980;28;20475;-72
2023/03/07 10:23:43;;;;;;;11.40;7.47;;;8.50;1.00;;;;;;5010713;28;20528;-71
2023/03/07 10:26:36;;;;;;;12.03;7.13;;;8.80;1.00;;;;;;5005685;28;20441;-72
2023/03/07 10:29:12;;;;;;;11.70;6.77;;;9.20;1.00;;;;;;5004614;28;20483;-72
2023/03/07 10:31:42;;;;;;;10.20;6.30;;;9.30;1.00;;;;;;5005448;28;20600;-72
2023/03/07 10:34:15;;;;;;;9.40;6.80;;;9.50;1.00;;;;;;5010614;28;20430;-72
2023/03/07 10:36:45;;;;;;;7.90;5.40;;;9.40;1.00;;;;;;5012512;28;20820;-72
2023/03/07 10:39:17;;;;;;;10.17;6.53;;;9.30;1.00;;;;;;5007311;28;20540;-72
2023/03/07 10:41:42;;;;;;;8.73;6.63;;;10.00;1.00;;;;;;5010434;28;21089;-72
2023/03/07 10:44:17;;;;;;;11.07;6.80;;;10.70;1.00;;;;;;5008100;28;20524;-72
2023/03/07 10:46:43;;;;;;;10.90;7.03;;;11.30;1.00;;;;;;5010539;28;20256;-73
2023/03/07 10:49:30;;;;;;;10.07;7.20;;;11.30;1.00;;;;;;5004737;28;20421;-69
2023/03/07 10:52:17;;;;;;;11.47;7.60;;;12.30;1.00;;;;;;5008954;28;20437;-69
2023/03/07 10:54:43;;;;;;;12.33;6.20;;;12.50;1.00;;;;;;5007764;28;20524;-70
2023/03/07 10:57:15;;;;;;;12.37;7.80;;;11.20;1.00;;;;;;5011189;28;20545;-69
2023/03/07 10:59:48;;;;;;;10.23;7.10;;;10.90;1.00;;;;;;5010380;28;20218;-70
2023/03/07 11:02:36;;;;;;;12.17;7.17;;;10.60;1.00;;;;;;5009004;28;20501;-69
2023/03/07 11:05:23;;;;;;;11.93;8.23;;;10.40;1.00;;;;;;5010316;28;20440;-70
2023/03/07 11:07:48;;;;;;;14.10;7.73;;;10.30;1.00;;;;;;5011723;28;20421;-70
2023/03/07 11:10:34;;;;;;;33.10;7.70;;;10.40;1.00;;;;;;5010788;28;20455;-69
2023/03/07 11:13:16;;;;;;;12.70;7.63;;;10.30;1.00;;;;;;5010268;28;20194;-69
2023/03/07 11:15:44;;;;;;;13.40;7.13;;;10.20;1.00;;;;;;5011003;28;20453;-70
2023/03/07 11:18:37;;;;;;;15.40;6.77;;;10.30;1.00;;;;;;5007070;28;20480;-70
2023/03/07 11:21:03;;;;;;;11.30;6.87;;;10.20;1.00;;;;;;5007716;28;20495;-70
2023/03/07 11:23:30;;;;;;;12.00;6.90;;;10.10;1.00;;;;;;5010278;28;20464;-70
2023/03/07 11:26:13;;;;;;;12.10;6.80;;;10.20;1.00;;;;;;5009367;28;20214;-71
2023/03/07 11:28:39;;;;;;;9.80;6.47;;;10.20;1.00;;;;;;5010773;28;20441;-70
2023/03/07 11:31:28;;;;;;;10.50;6.83;;;10.80;1.00;;;;;;5010353;28;20550;-71
2023/03/07 11:34:07;;;;;;;10.57;6.07;;;11.70;1.00;;;;;;5007918;28;20449;-71
2023/03/07 11:36:38;;;;;;;10.00;7.00;;;13.50;1.00;;;;;;5010997;28;20505;-70
2023/03/07 11:39:38;;;;;;;13.17;7.27;;;13.60;1.00;;;;;;5003145;28;20451;-71
2023/03/07 11:42:14;;;;;;;9.57;5.93;;;13.60;1.00;;;;;;5003184;28;20492;-71
2023/03/07 11:45:05;;;;;;;12.50;7.47;;;14.10;1.00;;;;;;5011001;28;20515;-71
2023/03/07 11:48:00;;;;;;;11.47;7.20;;;13.80;1.00;;;;;;5001275;28;20443;-71
2023/03/07 11:50:29;;;;;;;9.53;7.30;;;12.30;1.00;;;;;;4999322;28;21147;-71
2023/03/07 11:53:13;;;;;;;8.10;6.40;;;11.30;1.00;;;;;;5011198;28;20924;-70
2023/03/07 11:55:58;;;;;;;10.53;6.60;;;10.70;1.00;;;;;;5024192;28;20442;-70
2023/03/07 11:58:29;;;;;;;13.33;7.00;;;9.80;1.00;;;;;;5007672;28;20461;-70
2023/03/07 12:01:29;;;;;;;11.60;6.90;;;9.40;1.00;;;;;;5000478;28;20460;-71
2023/03/07 12:04:15;;;;;;;8.77;6.00;;;9.20;1.00;;;;;;4993611;28;20438;-72
2023/03/07 12:07:06;;;;;;;13.90;6.60;;;9.00;1.00;;;;;;5009126;28;20433;-70
2023/03/07 12:09:56;;;;;;;10.40;7.17;;;9.00;1.00;;;;;;5003952;28;20901;-70
2023/03/07 12:12:29;;;;;;;11.60;6.17;;;9.20;1.00;;;;;;5008373;28;20437;-70
2023/03/07 12:15:24;;;;;;;12.43;7.27;;;9.60;1.00;;;;;;5009157;28;20476;-72
2023/03/07 12:18:23;;;;;;;12.20;7.30;;;10.10;1.00;;;;;;5010114;28;20433;-72
2023/03/07 12:21:11;;;;;;;9.80;5.90;;;11.10;1.00;;;;;;5005880;28;20556;-72
2023/03/07 12:23:48;;;;;;;11.83;6.37;;;12.80;1.00;;;;;;5006045;28;20968;-72
2023/03/07 12:26:31;;;;;;;8.67;6.80;;;13.10;1.00;;;;;;5002553;28;20439;-72
2023/03/07 12:29:14;;;;;;;8.30;5.77;;;12.70;1.00;;;;;;5023672;28;20429;-72
2023/03/07 12:31:44;;;;;;;9.27;6.13;;;12.30;1.00;;;;;;5006316;28;20476;-72
2023/03/07 12:34:10;;;;;;;20.13;7.70;;;11.10;1.00;;;;;;5008020;28;20438;-73
2023/03/07 12:36:54;;;;;;;11.63;7.80;;;10.90;1.00;;;;;;5010513;28;20441;-72
2023/03/07 12:39:29;;;;;;;10.97;7.20;;;10.60;1.00;;;;;;5008739;28;20464;-73
2023/03/07 12:42:31;;;;;;;9.33;7.00;;;10.30;1.00;;;;;;5005301;28;20542;-72
2023/03/07 12:45:21;;;;;;;11.47;6.50;;;10.10;1.00;;;;;;4997642;28;20943;-73
2023/03/07 12:48:10;;;;;;;9.90;6.20;;;9.60;1.00;;;;;;5004355;28;20919;-72
2023/03/07 12:50:57;;;;;;;8.03;6.07;;;9.40;1.00;;;;;;5008105;28;20499;-73
2023/03/07 12:53:36;;;;;;;9.73;5.93;;;9.30;1.00;;;;;;5008445;28;20512;-72
2023/03/07 12:56:18;;;;;;;12.23;5.67;;;9.30;1.00;;;;;;5008255;28;20441;-72
2023/03/07 12:59:08;;;;;;;8.43;5.77;;;9.10;1.00;;;;;;5009329;28;20468;-72
2023/03/07 13:01:38;;;;;;;14.27;6.20;;;8.80;1.00;;;;;;5007580;28;20469;-72
2023/03/07 13:04:42;;;;;;;8.73;5.80;;;8.90;1.00;;;;;;5004417;28;20919;-73
2023/03/07 13:07:11;;;;;;;9.77;5.37;;;8.90;1.00;;;;;;4996520;28;20444;-72
2023/03/07 13:09:40;;;;;;;10.00;6.10;;;9.00;1.00;;;;;;5006995;28;20437;-72